Ora Direzione Vento Velocita' Vento Media Vento Raffica Max. Temperatura Wind Chill Pioggia Pressione
15:12:40.0112 °(ESE)5.8 Kts4.9 Kts6.6 Kts31.1 °C31.1 °C0.0 mm1009.4 Hpa
14:51:44.0112 °(ESE)6.0 Kts6.3 Kts6.6 Kts30.5 °C30.5 °C0.0 mm1009.7 Hpa
14:32:05.0112 °(ESE)3.9 Kts4.0 Kts6.6 Kts30.2 °C30.2 °C0.0 mm1010.0 Hpa
14:11:40.0112 °(ESE)4.1 Kts3.9 Kts6.6 Kts30.6 °C30.6 °C0.0 mm1010.2 Hpa
13:51:49.0112 °(ESE)5.1 Kts4.5 Kts6.6 Kts29.9 °C29.9 °C0.0 mm1010.5 Hpa
13:32:31.0135 °(SE)3.5 Kts3.4 Kts6.6 Kts29.6 °C29.6 °C0.0 mm1010.6 Hpa
13:11:58.0112 °(ESE)3.1 Kts3.5 Kts6.6 Kts29.2 °C29.2 °C0.0 mm1010.9 Hpa
12:51:39.0112 °(ESE)4.1 Kts2.6 Kts6.6 Kts28.4 °C28.4 °C0.0 mm1011.1 Hpa
12:32:19.090 °(E)2.7 Kts3.0 Kts6.6 Kts26.4 °C26.4 °C0.0 mm1011.3 Hpa
12:11:57.0112 °(ESE)4.3 Kts4.0 Kts6.6 Kts24.2 °C24.2 °C0.0 mm1011.4 Hpa
11:52:06.0112 °(ESE)3.5 Kts3.6 Kts6.6 Kts23.3 °C23.3 °C0.0 mm1011.6 Hpa
11:31:46.0135 °(SE)3.1 Kts2.9 Kts6.6 Kts22.2 °C22.2 °C0.0 mm1011.7 Hpa
11:12:37.090 °(E)2.7 Kts2.8 Kts6.6 Kts21.6 °C21.6 °C0.0 mm1011.8 Hpa
10:52:18.0158 °(SSE)4.5 Kts3.9 Kts6.6 Kts19.9 °C19.9 °C0.0 mm1011.9 Hpa
10:31:57.0135 °(SE)4.5 Kts3.2 Kts6.6 Kts19.4 °C19.4 °C0.0 mm1011.7 Hpa
10:11:45.0112 °(ESE)4.1 Kts3.7 Kts6.6 Kts17.9 °C17.9 °C0.0 mm1011.6 Hpa
09:52:30.0135 °(SE)0.0 Kts2.4 Kts6.6 Kts17.4 °C17.4 °C0.0 mm1011.5 Hpa
09:32:09.0112 °(ESE)3.1 Kts3.1 Kts6.6 Kts16.1 °C16.1 °C0.0 mm1011.6 Hpa
09:11:55.0158 °(SSE)1.9 Kts2.7 Kts6.6 Kts15.4 °C15.4 °C0.0 mm1011.5 Hpa
08:51:35.0135 °(SE)2.7 Kts3.0 Kts5.8 Kts14.9 °C14.9 °C0.0 mm1011.5 Hpa